Time;durP1;ratioP1;P1;durP2;ratioP2;P2;SDS_P1;SDS_P2;PMS_P1;PMS_P2;Temp;Humidity;BMP_temperature;BMP_pressure;BME280_temperature;BME280_humidity;BME280_pressure;Samples;Min_cycle;Max_cycle;Signal;HPM_P1;HPM_P2
2022/11/15 00:01:01;;;;;;;25.10;12.80;;;;;;;4.28;100.00;98763.41;102698;1313;138382;-74
2022/11/15 00:03:51;;;;;;;26.40;13.20;;;;;;;4.27;100.00;98769.29;102903;1299;22507;-74
2022/11/15 00:06:40;;;;;;;31.70;12.70;;;;;;;4.25;100.00;98764.17;102767;1312;138108;-74
2022/11/15 00:09:25;;;;;;;21.70;11.90;;;;;;;4.24;100.00;98764.83;103447;1294;22480;-76
2022/11/15 00:12:11;;;;;;;25.40;11.80;;;;;;;4.24;100.00;98767.89;103252;1298;141626;-75
2022/11/15 00:14:56;;;;;;;20.40;11.70;;;;;;;4.22;100.00;98759.75;102857;1297;24532;-74
2022/11/15 00:17:49;;;;;;;23.30;11.40;;;;;;;4.20;100.00;98762.98;102692;1293;138690;-75
2022/11/15 00:20:34;;;;;;;23.90;11.40;;;;;;;4.20;100.00;98755.67;102953;1294;22593;-74
2022/11/15 00:23:20;;;;;;;19.30;10.10;;;;;;;4.19;100.00;98753.93;102813;1304;140395;-74
2022/11/15 00:26:13;;;;;;;21.70;11.70;;;;;;;4.16;100.00;98753.75;102897;1312;24235;-74
2022/11/15 00:28:59;;;;;;;23.40;11.60;;;;;;;4.14;99.98;98752.81;102988;1303;22727;-74
2022/11/15 00:31:45;;;;;;;21.90;12.00;;;;;;;4.12;100.00;98747.33;102927;1304;24391;-74
2022/11/15 00:34:30;;;;;;;19.30;10.70;;;;;;;4.12;100.00;98744.21;102781;1305;22596;-74
2022/11/15 00:37:16;;;;;;;20.70;11.00;;;;;;;4.10;100.00;98736.58;102781;1304;138354;-74
2022/11/15 00:40:01;;;;;;;22.20;11.40;;;;;;;4.08;100.00;98737.17;102885;1289;22532;-74
2022/11/15 00:42:47;;;;;;;22.20;11.40;;;;;;;4.05;99.94;98735.09;102942;1282;138071;-74
2022/11/15 00:45:33;;;;;;;22.30;11.80;;;;;;;4.04;100.00;98734.52;102851;1289;25332;-74
2022/11/15 00:48:28;;;;;;;23.60;12.40;;;;;;;4.02;100.00;98728.98;102910;1308;138003;-74
2022/11/15 00:51:14;;;;;;;20.90;11.60;;;;;;;4.00;100.00;98724.73;102811;1288;25265;-73
2022/11/15 00:54:00;;;;;;;19.90;10.80;;;;;;;3.98;100.00;98723.85;102918;1297;137914;-74
2022/11/15 00:56:46;;;;;;;18.50;10.40;;;;;;;3.97;100.00;98721.39;102857;1303;24449;-74
2022/11/15 00:59:32;;;;;;;18.40;9.90;;;;;;;3.95;100.00;98725.94;104594;1299;138036;-74
2022/11/15 01:02:18;;;;;;;21.00;10.50;;;;;;;3.92;100.00;98725.75;102869;1303;24387;-75
2022/11/15 01:05:04;;;;;;;23.80;11.80;;;;;;;3.92;100.00;98725.42;102790;1298;22995;-74
2022/11/15 01:07:53;;;;;;;25.70;11.00;;;;;;;3.91;100.00;98719.95;102810;1301;25435;-74
2022/11/15 01:10:40;;;;;;;21.50;11.90;;;;;;;3.91;100.00;98724.05;102901;1288;25341;-74
2022/11/15 01:13:26;;;;;;;21.50;12.30;;;;;;;3.92;100.00;98722.48;102741;1303;138115;-74
2022/11/15 01:16:16;;;;;;;19.90;11.20;;;;;;;3.93;100.00;98720.44;103107;1301;22530;-74
2022/11/15 01:19:03;;;;;;;19.30;11.20;;;;;;;3.93;100.00;98716.30;102752;1312;137865;-74
2022/11/15 01:21:51;;;;;;;22.70;12.10;;;;;;;3.94;100.00;98712.08;102845;1312;24343;-74
2022/11/15 01:24:38;;;;;;;22.00;12.10;;;;;;;3.95;100.00;98712.13;102909;1296;137909;-74
2022/11/15 01:27:24;;;;;;;22.60;12.30;;;;;;;3.95;100.00;98715.48;105022;1288;138460;-75
2022/11/15 01:30:10;;;;;;;20.80;11.30;;;;;;;3.96;100.00;98712.34;103010;1313;22483;-74
2022/11/15 01:32:56;;;;;;;17.60;10.50;;;;;;;3.95;100.00;98714.42;103045;1309;138484;-74
2022/11/15 01:35:41;;;;;;;23.10;11.40;;;;;;;3.94;100.00;98708.40;102932;1297;22527;-74
2022/11/15 01:38:27;;;;;;;18.60;10.50;;;;;;;3.94;100.00;98707.52;103047;1297;138546;-74
2022/11/15 01:41:17;;;;;;;22.50;10.00;;;;;;;3.91;99.82;98707.95;102962;1312;24260;-74
2022/11/15 01:44:42;;;;;;;13.00;7.70;;;;;;;3.82;99.19;98712.31;102777;1285;138356;-74
2022/11/15 01:47:37;;;;;;;16.60;9.70;;;;;;;3.71;99.20;98710.16;103204;1281;23327;-74
2022/11/15 01:50:29;;;;;;;20.50;10.70;;;;;;;3.67;99.67;98705.64;102940;1309;137845;-74
2022/11/15 01:53:17;;;;;;;16.70;9.70;;;;;;;3.65;99.94;98702.23;102910;1310;22524;-74
2022/11/15 01:56:06;;;;;;;17.90;9.60;;;;;;;3.62;99.92;98698.02;102865;1313;22474;-74
2022/11/15 01:58:55;;;;;;;19.00;10.00;;;;;;;3.62;99.97;98693.60;102990;1303;22543;-74
2022/11/15 02:01:42;;;;;;;18.00;9.60;;;;;;;3.61;100.00;98689.95;102993;1303;24704;-74
2022/11/15 02:04:31;;;;;;;20.60;10.10;;;;;;;3.63;100.00;98682.42;102907;1285;137769;-74
2022/11/15 02:07:19;;;;;;;20.70;11.10;;;;;;;3.67;100.00;98683.45;102887;1312;22822;-74
2022/11/15 02:10:22;;;;;;;26.20;11.00;;;;;;;3.71;100.00;98679.63;102993;1301;137866;-74
2022/11/15 02:13:08;;;;;;;20.70;11.10;;;;;;;3.72;100.00;98677.13;103063;1310;22478;-74
2022/11/15 02:16:03;;;;;;;24.30;10.80;;;;;;;3.73;100.00;98680.95;103020;1298;138443;-74
2022/11/15 02:19:02;;;;;;;20.20;10.20;;;;;;;3.74;100.00;98681.31;103022;1293;22485;-74
2022/11/15 02:22:16;;;;;;;20.40;10.90;;;;;;;3.77;100.00;98678.52;103005;1288;138268;-75
2022/11/15 02:25:31;;;;;;;19.20;9.90;;;;;;;3.79;100.00;98677.25;102955;1304;24299;-74
2022/11/15 02:28:25;;;;;;;18.00;10.00;;;;;;;3.81;100.00;98671.86;102808;1312;139071;-74
2022/11/15 02:31:28;;;;;;;17.10;9.50;;;;;;;3.82;100.00;98669.95;102921;1307;25687;-74
2022/11/15 02:34:28;;;;;;;17.20;9.80;;;;;;;3.83;100.00;98664.30;102884;1288;138221;-74
2022/11/15 02:37:20;;;;;;;16.50;8.70;;;;;;;3.82;100.00;98668.35;103010;1296;26621;-74
2022/11/15 02:40:21;;;;;;;19.70;9.10;;;;;;;3.79;99.97;98662.53;102886;1304;138006;-74
2022/11/15 02:47:12;;;;;;;20.40;9.70;;;;;;;3.77;99.98;98659.91;102817;1304;137706;-74
2022/11/15 02:49:34;;;;;;;17.60;10.60;;;;;;;3.75;99.89;98655.87;102934;1305;22882;-74
2022/11/15 02:52:23;;;;;;;19.00;10.20;;;;;;;3.73;99.74;98656.58;102815;1312;137805;-74
2022/11/15 02:55:30;;;;;;;19.80;12.20;;;;;;;3.70;99.70;98650.78;102904;1298;22492;-74
2022/11/15 02:58:30;;;;;;;27.20;11.30;;;;;;;3.69;99.78;98646.84;102838;1312;139438;-74
2022/11/15 03:01:28;;;;;;;18.00;10.60;;;;;;;3.67;99.54;98645.53;102894;1312;22860;-74
2022/11/15 03:04:36;;;;;;;23.20;11.20;;;;;;;3.65;99.89;98640.88;102734;1312;137737;-74
2022/11/15 03:07:35;;;;;;;19.70;10.20;;;;;;;3.66;100.00;98634.42;102891;1288;24349;-74
2022/11/15 03:10:25;;;;;;;;;;;;;;;3.68;100.00;98631.86;102747;1304;137976;-74
2022/11/15 03:13:16;;;;;;;;;;;;;;;3.66;100.00;98635.29;102948;1297;22498;-74
2022/11/15 03:16:11;;;;;;;23.10;11.90;;;;;;;3.67;100.00;98642.55;102723;1298;124179;-74
2022/11/15 03:19:17;;;;;;;24.10;12.40;;;;;;;3.66;100.00;98636.23;102849;1304;22477;-74
2022/11/15 03:22:06;;;;;;;23.40;12.20;;;;;;;3.65;100.00;98635.42;102757;1304;140060;-74
2022/11/15 03:24:59;;;;;;;25.20;13.00;;;;;;;3.66;100.00;98632.64;102881;1305;22511;-74
2022/11/15 03:27:50;;;;;;;29.30;13.70;;;;;;;3.68;100.00;98627.35;102755;1296;138127;-74
2022/11/15 03:30:38;;;;;;;25.40;12.20;;;;;;;3.68;100.00;98624.23;102792;1312;22516;-74
2022/11/15 03:33:26;;;;;;;27.20;14.50;;;;;;;3.66;100.00;98615.94;102719;1312;137974;-74
2022/11/15 03:36:12;;;;;;;27.40;14.70;;;;;;;3.68;100.00;98609.98;102827;1289;22487;-73
2022/11/15 03:39:05;;;;;;;28.80;14.30;;;;;;;3.71;100.00;98611.25;102741;1300;138854;-74
2022/11/15 03:42:10;;;;;;;26.70;14.30;;;;;;;3.73;100.00;98607.90;102883;1304;22537;-74
2022/11/15 03:45:09;;;;;;;32.00;14.80;;;;;;;3.73;100.00;98602.89;102763;1302;138683;-73
2022/11/15 03:48:18;;;;;;;31.90;14.90;;;;;;;3.71;100.00;98594.44;102840;1304;23092;-74
2022/11/15 03:51:05;;;;;;;28.90;14.40;;;;;;;3.72;100.00;98593.95;102750;1289;137902;-74
2022/11/15 03:53:51;;;;;;;29.70;14.30;;;;;;;3.73;100.00;98592.61;102830;1288;22864;-74
2022/11/15 03:56:37;;;;;;;32.30;16.10;;;;;;;3.73;100.00;98589.89;102768;1291;138208;-74
2022/11/15 03:59:23;;;;;;;27.70;14.60;;;;;;;3.74;100.00;98585.70;102832;1304;22490;-74
2022/11/15 04:02:08;;;;;;;31.80;15.50;;;;;;;3.74;100.00;98580.58;102845;1304;24396;-74
2022/11/15 04:04:54;;;;;;;25.20;13.90;;;;;;;3.75;100.00;98580.33;102856;1301;22558;-74
2022/11/15 04:07:40;;;;;;;28.20;15.50;;;;;;;3.76;100.00;98576.08;102842;1312;24284;-74
2022/11/15 04:10:26;;;;;;;33.30;16.10;;;;;;;3.78;100.00;98568.63;102671;1290;140359;-74
2022/11/15 04:13:11;;;;;;;29.30;15.40;;;;;;;3.79;100.00;98561.08;102864;1300;25697;-74
2022/11/15 04:15:57;;;;;;;23.90;13.80;;;;;;;3.79;100.00;98555.27;102628;1291;137917;-73
2022/11/15 04:18:42;;;;;;;29.70;16.00;;;;;;;3.81;100.00;98557.08;102861;1300;25460;-74
2022/11/15 04:24:33;;;;;;;26.50;14.40;;;;;;;3.85;100.00;98549.01;102698;1291;22499;-74
2022/11/15 04:27:18;;;;;;;31.20;16.20;;;;;;;3.85;100.00;98546.92;102644;1306;139591;-74
2022/11/15 04:30:05;;;;;;;29.40;16.40;;;;;;;3.85;100.00;98537.87;102828;1312;24230;-73
2022/11/15 04:32:51;;;;;;;28.10;14.60;;;;;;;3.86;100.00;98538.70;102718;1290;139735;-73
2022/11/15 04:35:37;;;;;;;32.30;16.10;;;;;;;3.85;100.00;98537.61;102744;1298;24302;-73
2022/11/15 04:38:22;;;;;;;26.50;14.60;;;;;;;3.85;100.00;98532.94;102826;1303;138711;-74
2022/11/15 04:41:11;;;;;;;32.10;17.50;;;;;;;3.86;100.00;98532.10;102839;1312;22902;-74
2022/11/15 04:43:56;;;;;;;29.70;14.80;;;;;;;3.85;100.00;98525.84;102846;1307;22994;-74
2022/11/15 04:46:42;;;;;;;31.60;16.40;;;;;;;3.85;100.00;98527.30;102711;1304;137842;-73
2022/11/15 04:49:27;;;;;;;28.40;16.00;;;;;;;3.84;100.00;98524.42;102814;1312;24301;-73
2022/11/15 04:52:13;;;;;;;30.70;14.40;;;;;;;3.82;100.00;98522.11;102522;1290;138507;-73
2022/11/15 04:54:58;;;;;;;32.10;15.80;;;;;;;3.79;100.00;98517.45;102864;1290;22862;-73
2022/11/15 04:57:44;;;;;;;35.00;17.60;;;;;;;3.77;100.00;98521.66;102639;1298;138052;-74
2022/11/15 05:00:30;;;;;;;34.10;15.80;;;;;;;3.79;100.00;98516.80;102773;1297;25480;-74
2022/11/15 05:06:21;;;;;;;29.60;16.10;;;;;;;3.82;100.00;98510.70;102807;1309;25327;-74
2022/11/15 05:09:06;;;;;;;30.50;15.20;;;;;;;3.83;100.00;98510.13;102724;1297;139733;-73
2022/11/15 05:11:51;;;;;;;28.00;14.90;;;;;;;3.84;100.00;98507.48;102799;1306;25515;-74
2022/11/15 05:14:37;;;;;;;27.20;14.80;;;;;;;3.85;100.00;98503.05;102700;1303;138419;-73
2022/11/15 05:17:22;;;;;;;27.50;14.50;;;;;;;3.86;100.00;98505.34;102786;1305;22599;-74
2022/11/15 05:20:09;;;;;;;27.10;13.90;;;;;;;3.85;100.00;98499.52;102802;1306;24052;-73
2022/11/15 05:22:55;;;;;;;26.60;13.50;;;;;;;3.83;100.00;98496.73;102874;1288;22638;-73
2022/11/15 05:25:41;;;;;;;27.80;14.00;;;;;;;3.79;99.99;98496.94;102779;1288;24398;-74
2022/11/15 05:28:26;;;;;;;24.40;13.90;;;;;;;3.77;100.00;98498.58;102774;1304;139125;-74
2022/11/15 05:31:15;;;;;;;23.70;13.10;;;;;;;3.76;100.00;98493.86;102895;1297;22489;-72
2022/11/15 05:34:04;;;;;;;19.40;11.30;;;;;;;3.75;100.00;98490.38;102821;1313;137945;-72
2022/11/15 05:36:50;;;;;;;22.10;12.30;;;;;;;3.73;100.00;98487.42;102946;1288;22488;-72
2022/11/15 05:39:35;;;;;;;18.70;11.00;;;;;;;3.70;99.98;98488.85;102810;1303;138089;-72
2022/11/15 05:42:21;;;;;;;21.70;12.50;;;;;;;3.66;99.52;98488.70;104251;1299;22195;-72
2022/11/15 05:45:08;;;;;;;24.00;13.10;;;;;;;3.58;99.05;98492.02;102824;1281;137911;-72
2022/11/15 05:47:57;;;;;;;24.20;13.40;;;;;;;3.54;99.54;98494.86;102885;1288;22536;-72
2022/11/15 05:50:46;;;;;;;22.20;13.30;;;;;;;3.53;99.81;98492.38;102794;1285;140452;-72
2022/11/15 05:53:32;;;;;;;25.10;14.50;;;;;;;3.52;99.93;98488.67;102963;1312;25706;-72
2022/11/15 05:56:18;;;;;;;23.90;13.80;;;;;;;3.52;99.90;98488.92;102860;1304;22520;-72
2022/11/15 05:59:05;;;;;;;23.20;12.90;;;;;;;3.50;99.77;98488.63;102903;1289;22477;-72
2022/11/15 06:01:51;;;;;;;21.50;12.30;;;;;;;3.49;99.88;98487.09;102930;1304;23222;-72
2022/11/15 06:04:36;;;;;;;23.80;12.50;;;;;;;3.50;99.92;98488.42;102735;1313;137911;-72
2022/11/15 06:07:22;;;;;;;24.30;13.60;;;;;;;3.49;99.82;98480.10;102876;1289;24439;-72
2022/11/15 06:10:09;;;;;;;24.40;13.50;;;;;;;3.47;99.65;98481.62;102826;1288;138827;-72
2022/11/15 06:12:59;;;;;;;21.20;12.40;;;;;;;3.45;99.70;98477.70;102820;1289;24453;-72
2022/11/15 06:15:45;;;;;;;21.80;11.20;;;;;;;3.44;99.62;98471.66;102740;1288;138068;-72
2022/11/15 06:18:35;;;;;;;23.50;11.50;;;;;;;3.41;99.28;98477.69;102863;1298;22632;-72
2022/11/15 06:21:20;;;;;;;19.80;11.30;;;;;;;3.39;99.24;98472.21;102650;1312;137731;-72
2022/11/15 06:24:06;;;;;;;17.00;11.10;;;;;;;3.38;99.21;98476.88;102861;1312;24298;-72
2022/11/15 06:26:52;;;;;;;13.60;9.00;;;;;;;3.35;99.27;98472.48;102760;1289;139811;-72
2022/11/15 06:29:38;;;;;;;18.00;10.10;;;;;;;3.31;98.50;98471.00;102781;1312;24412;-72
2022/11/15 06:32:24;;;;;;;16.00;9.50;;;;;;;3.27;98.53;98474.50;102804;1297;24472;-72
2022/11/15 06:35:10;;;;;;;19.60;10.60;;;;;;;3.23;98.51;98476.58;102835;1307;22723;-72
2022/11/15 06:38:01;;;;;;;18.30;10.90;;;;;;;3.23;99.01;98478.20;102869;1299;22492;-72
2022/11/15 06:40:47;;;;;;;19.10;11.00;;;;;;;3.23;98.75;98473.77;102854;1305;139375;-72
2022/11/15 06:43:33;;;;;;;20.00;10.50;;;;;;;3.18;98.50;98480.57;102909;1284;25318;-72
2022/11/15 06:46:19;;;;;;;15.50;9.80;;;;;;;3.19;99.03;98482.19;102803;1312;137867;-72
2022/11/15 06:49:05;;;;;;;19.40;10.20;;;;;;;3.20;98.93;98482.40;102865;1281;24361;-72
2022/11/15 06:51:51;;;;;;;20.30;10.90;;;;;;;3.20;99.12;98481.98;102691;1301;137910;-74
2022/11/15 06:54:36;;;;;;;21.30;10.50;;;;;;;3.21;99.16;98478.77;102849;1313;22473;-74
2022/11/15 06:57:22;;;;;;;20.40;11.20;;;;;;;3.23;99.24;98481.97;102646;1312;138667;-73
2022/11/15 07:00:08;;;;;;;19.70;12.30;;;;;;;3.32;99.98;98481.10;102776;1307;22597;-73
2022/11/15 07:02:54;;;;;;;20.30;10.80;;;;;;;3.37;99.90;98473.93;102933;1312;139834;-73
2022/11/15 07:05:40;;;;;;;21.30;10.80;;;;;;;3.39;99.23;98475.20;102886;1300;25377;-73
2022/11/15 07:08:28;;;;;;;15.80;10.20;;;;;;;3.40;99.22;98475.11;102806;1300;22524;-74
2022/11/15 07:11:14;;;;;;;17.00;10.40;;;;;;;3.47;99.86;98475.69;102972;1300;23881;-73
2022/11/15 07:14:03;;;;;;;19.40;10.90;;;;;;;3.54;99.58;98478.70;103371;1288;25439;-73
2022/11/15 07:16:58;;;;;;;19.50;11.00;;;;;;;3.55;98.88;98481.58;103038;1304;137803;-73
2022/11/15 07:19:44;;;;;;;18.90;10.90;;;;;;;3.55;98.32;98476.55;103127;1284;26540;-73
2022/11/15 07:22:30;;;;;;;21.50;11.80;;;;;;;3.56;98.43;98476.79;102884;1290;139139;-73
2022/11/15 07:25:17;;;;;;;20.00;12.20;;;;;;;3.56;97.92;98476.43;103315;1293;24373;-73
2022/11/15 07:28:04;;;;;;;19.30;11.60;;;;;;;3.54;97.83;98470.42;102800;1285;138500;-73
2022/11/15 07:30:53;;;;;;;23.10;13.00;;;;;;;3.53;97.71;98469.91;102950;1305;22441;-74
2022/11/15 07:33:38;;;;;;;28.10;13.80;;;;;;;3.50;97.70;98469.20;102927;1312;137723;-74
2022/11/15 07:36:24;;;;;;;25.30;13.90;;;;;;;3.50;97.53;98466.48;102975;1312;24324;-74
2022/11/15 07:39:11;;;;;;;27.90;14.90;;;;;;;3.52;97.85;98459.43;102976;1281;137917;-74
2022/11/15 07:45:03;;;;;;;25.40;13.70;;;;;;;3.58;98.06;98462.78;102944;1310;138518;-74
2022/11/15 07:47:49;;;;;;;25.10;13.60;;;;;;;3.57;97.37;98462.73;103074;1312;22646;-74
2022/11/15 07:50:35;;;;;;;23.80;13.40;;;;;;;3.57;97.65;98464.27;103048;1308;22477;-74
2022/11/15 07:53:21;;;;;;;22.00;13.30;;;;;;;3.57;97.13;98460.20;103389;1296;24335;-74
2022/11/15 07:56:07;;;;;;;24.10;13.70;;;;;;;3.53;97.13;98459.86;102871;1288;138919;-74
2022/11/15 07:58:53;;;;;;;27.30;13.00;;;;;;;3.54;97.52;98454.89;103022;1308;24357;-74
2022/11/15 08:01:39;;;;;;;21.80;12.20;;;;;;;3.54;96.99;98447.71;102860;1313;137800;-74
2022/11/15 08:04:25;;;;;;;23.20;13.00;;;;;;;3.49;96.83;98455.11;103010;1312;24282;-75
2022/11/15 08:07:11;;;;;;;25.10;13.30;;;;;;;3.47;97.46;98449.98;102912;1313;137951;-74
2022/11/15 08:09:57;;;;;;;20.80;12.40;;;;;;;3.51;98.07;98447.66;103038;1288;22606;-72
2022/11/15 08:12:42;;;;;;;23.10;13.40;;;;;;;3.55;97.87;98438.25;103000;1299;138320;-73
2022/11/15 08:15:29;;;;;;;31.20;14.30;;;;;;;3.62;98.47;98438.86;103307;1293;22570;-73
2022/11/15 08:18:16;;;;;;;25.80;14.20;;;;;;;3.75;99.18;98433.77;103327;1304;24401;-73
2022/11/15 08:21:02;;;;;;;20.40;12.90;;;;;;;3.85;98.84;98437.33;103186;1281;138104;-73
2022/11/15 08:23:48;;;;;;;21.60;12.80;;;;;;;3.90;98.39;98435.64;102210;1307;1183587;-73
2022/11/15 08:26:34;;;;;;;26.40;14.10;;;;;;;3.96;97.90;98434.91;102942;1283;138276;-73
2022/11/15 08:29:20;;;;;;;26.10;14.60;;;;;;;4.05;98.21;98431.66;103015;1298;22764;-74
2022/11/15 08:32:07;;;;;;;24.90;13.80;;;;;;;4.15;98.50;98428.12;102970;1285;137988;-73
2022/11/15 08:34:53;;;;;;;26.50;14.50;;;;;;;4.25;98.26;98425.35;103301;1291;22506;-76
2022/11/15 08:37:39;;;;;;;25.50;14.10;;;;;;;4.34;98.19;98425.98;103037;1284;138356;-74
2022/11/15 08:40:26;;;;;;;29.00;16.10;;;;;;;4.44;98.01;98428.82;102922;1296;22577;-74
2022/11/15 08:43:12;;;;;;;32.50;16.40;;;;;;;4.56;98.57;98424.44;103073;1296;137754;-74
2022/11/15 08:45:58;;;;;;;29.00;15.40;;;;;;;4.67;98.13;98423.20;103064;1313;25467;-74
2022/11/15 08:48:44;;;;;;;30.70;16.50;;;;;;;4.76;97.70;98428.63;102850;1312;139194;-74
2022/11/15 08:51:29;;;;;;;31.50;16.30;;;;;;;4.85;97.55;98428.16;103019;1312;24439;-74
2022/11/15 08:54:15;;;;;;;33.80;16.60;;;;;;;4.93;97.39;98428.15;102896;1312;139094;-74
2022/11/15 08:57:01;;;;;;;35.00;18.10;;;;;;;5.02;97.48;98421.66;103131;1291;22638;-74
2022/11/15 08:59:47;;;;;;;34.90;17.60;;;;;;;5.10;97.33;98423.32;103034;1305;137943;-74
2022/11/15 09:02:32;;;;;;;31.80;17.10;;;;;;;5.14;96.42;98422.84;102973;1313;25335;-74
2022/11/15 09:05:18;;;;;;;33.20;16.40;;;;;;;5.15;96.33;98417.90;102841;1313;139442;-74
2022/11/15 09:08:04;;;;;;;35.40;18.70;;;;;;;5.17;96.02;98416.45;102972;1288;23233;-74
2022/11/15 09:10:50;;;;;;;40.70;20.10;;;;;;;5.20;96.17;98416.02;102902;1288;138423;-74
2022/11/15 09:13:37;;;;;;;40.90;19.70;;;;;;;5.25;96.37;98413.23;103120;1304;25400;-74
2022/11/15 09:16:22;;;;;;;38.60;18.20;;;;;;;5.33;96.37;98411.55;103131;1298;22666;-74
2022/11/15 09:19:08;;;;;;;35.20;18.80;;;;;;;5.42;96.88;98406.29;103078;1297;22624;-74
2022/11/15 09:21:54;;;;;;;41.90;20.30;;;;;;;5.53;97.03;98406.29;102926;1288;26513;-74
2022/11/15 09:24:40;;;;;;;41.80;21.10;;;;;;;5.62;96.79;98398.80;102958;1288;138146;-74
2022/11/15 09:27:29;;;;;;;36.70;18.40;;;;;;;5.73;96.51;98397.88;103022;1290;22489;-74
2022/11/15 09:30:15;;;;;;;38.40;19.10;;;;;;;5.78;95.98;98396.57;102862;1288;137767;-74
2022/11/15 09:33:09;;;;;;;34.80;19.10;;;;;;;5.83;95.91;98399.34;102899;1281;23208;-74
2022/11/15 09:36:01;;;;;;;38.80;20.70;;;;;;;5.91;95.87;98387.23;102803;1298;137752;-74
2022/11/15 09:38:47;;;;;;;40.80;20.40;;;;;;;5.97;95.54;98387.81;102863;1312;22599;-73
2022/11/15 09:41:56;;;;;;;38.00;19.50;;;;;;;6.04;95.61;98390.48;102778;1283;138112;-73
2022/11/15 09:44:52;;;;;;;40.60;21.00;;;;;;;6.11;95.65;98388.39;103002;1312;22604;-73
2022/11/15 09:47:54;;;;;;;35.80;20.00;;;;;;;6.16;95.15;98383.48;102877;1312;137842;-73
2022/11/15 09:50:46;;;;;;;38.80;19.80;;;;;;;6.21;94.83;98382.83;102889;1312;22626;-72
2022/11/15 09:53:38;;;;;;;40.20;22.00;;;;;;;6.24;94.66;98376.77;102862;1312;137904;-73
2022/11/15 09:56:22;;;;;;;42.00;21.80;;;;;;;6.28;94.56;98379.49;102858;1288;22631;-73
2022/11/15 09:59:01;;;;;;;43.70;22.30;;;;;;;6.32;94.24;98370.66;102882;1289;139693;-73
2022/11/15 10:01:44;;;;;;;42.80;22.80;;;;;;;6.33;93.90;98363.48;102860;1304;24423;-73
2022/11/15 10:04:12;;;;;;;47.80;23.50;;;;;;;6.35;94.34;98365.55;102847;1298;22505;-74
2022/11/15 10:06:46;;;;;;;44.50;22.30;;;;;;;6.38;94.16;98362.58;102760;1312;137855;-73
2022/11/15 10:09:19;;;;;;;39.60;22.70;;;;;;;6.38;93.90;98356.90;103005;1312;24371;-74
2022/11/15 10:11:46;;;;;;;39.60;21.30;;;;;;;6.41;94.02;98352.56;102822;1286;137767;-73
2022/11/15 10:14:27;;;;;;;38.40;20.00;;;;;;;6.44;93.60;98349.36;102969;1298;25521;-73
2022/11/15 10:17:09;;;;;;;37.10;19.70;;;;;;;6.44;93.18;98343.67;102796;1297;137933;-73
2022/11/15 10:19:45;;;;;;;34.40;19.80;;;;;;;6.47;93.39;98344.27;102939;1289;25264;-73
2022/11/15 10:22:18;;;;;;;35.10;19.80;;;;;;;6.51;93.23;98338.38;102937;1298;22490;-73
2022/11/15 10:24:47;;;;;;;40.40;21.80;;;;;;;6.56;93.55;98333.98;103214;1295;140912;-73
2022/11/15 10:27:17;;;;;;;37.70;21.40;;;;;;;6.62;93.79;98329.36;103032;1305;25395;-73
2022/11/15 10:29:48;;;;;;;39.60;21.10;;;;;;;6.70;93.91;98329.48;102855;1312;138705;-73
2022/11/15 10:32:18;;;;;;;41.20;21.70;;;;;;;6.76;93.59;98323.67;102908;1304;25325;-73
2022/11/15 10:34:47;;;;;;;40.70;22.00;;;;;;;6.81;93.16;98319.02;102903;1312;138246;-73
2022/11/15 10:37:26;;;;;;;42.90;22.90;;;;;;;6.88;93.58;98318.40;102917;1304;24751;-73
2022/11/15 10:40:14;;;;;;;;;;;;;;;6.97;94.01;98312.02;102908;1282;22464;-74
2022/11/15 10:42:41;;;;;;;37.90;22.20;;;;;;;7.05;93.75;98307.80;102872;1304;123648;-73
2022/11/15 10:45:38;;;;;;;38.80;21.60;;;;;;;7.10;93.41;98301.13;103081;1304;22488;-73
2022/11/15 10:48:14;;;;;;;40.20;22.50;;;;;;;7.17;93.57;98298.08;102207;1294;138478;-73
2022/11/15 10:50:44;;;;;;;35.00;21.30;;;;;;;7.25;93.47;98295.23;102492;1317;25386;-73
2022/11/15 10:53:28;;;;;;;33.10;20.50;;;;;;;7.32;93.60;98291.81;102504;1317;137963;-74
2022/11/15 10:55:59;;;;;;;40.00;22.20;;;;;;;7.39;93.17;98284.05;102394;1310;22551;-73
2022/11/15 10:58:32;;;;;;;37.00;22.20;;;;;;;7.44;92.60;98281.98;102252;1304;138368;-74
2022/11/15 11:01:20;;;;;;;35.70;21.10;;;;;;;7.48;92.62;98271.77;102213;1297;26798;-73
2022/11/15 11:04:09;;;;;;;35.60;21.10;;;;;;;7.57;92.69;98266.34;102374;1301;26790;-73
2022/11/15 11:06:50;;;;;;;;;;;;;;;7.66;92.46;98262.46;102443;1308;137993;-73
2022/11/15 11:09:42;;;;;;;35.70;19.70;;;;;;;7.73;92.69;98260.52;102604;1312;23076;-73
2022/11/15 11:12:12;;;;;;;32.00;20.00;;;;;;;7.80;92.02;98256.21;102491;1319;138045;-73
2022/11/15 11:14:39;;;;;;;32.50;19.40;;;;;;;7.85;91.52;98259.33;102520;1301;22495;-73
2022/11/15 11:17:54;;;;;;;35.00;19.40;;;;;;;7.90;91.48;98255.64;103164;1301;139809;-73
2022/11/15 11:20:29;;;;;;;31.00;19.90;;;;;;;7.96;91.31;98258.52;102896;1319;22391;-74
2022/11/15 11:23:34;;;;;;;30.60;20.00;;;;;;;8.03;91.36;98251.75;102457;1304;139826;-74
2022/11/15 11:26:08;;;;;;;30.90;18.90;;;;;;;8.12;91.24;98246.42;106404;1290;22492;-74
2022/11/15 11:29:01;;;;;;;33.10;19.90;;;;;;;8.21;91.41;98249.21;102994;1294;139773;-74
2022/11/15 11:31:48;;;;;;;34.90;21.60;;;;;;;8.32;90.84;98248.09;102920;1303;22639;-73
2022/11/15 11:34:35;;;;;;;34.20;22.20;;;;;;;8.40;90.66;98240.58;102933;1281;22605;-73
2022/11/15 11:37:44;;;;;;;35.10;19.80;;;;;;;8.47;90.43;98236.81;103013;1288;25917;-73
2022/11/15 11:40:20;;;;;;;38.70;21.50;;;;;;;8.54;90.04;98232.20;102969;1284;26494;-73
2022/11/15 11:43:07;;;;;;;36.80;23.10;;;;;;;8.62;90.36;98229.38;102879;1284;137748;-74
2022/11/15 11:45:34;;;;;;;32.00;20.50;;;;;;;8.73;90.74;98221.26;102946;1297;22716;-73
2022/11/15 11:48:33;;;;;;;33.50;21.20;;;;;;;8.82;90.25;98220.55;102840;1287;137981;-73
2022/11/15 11:51:28;;;;;;;36.90;22.80;;;;;;;8.90;89.83;98216.02;103204;1288;25347;-73
2022/11/15 11:54:11;;;;;;;36.80;21.20;;;;;;;8.98;89.49;98213.56;102909;1312;138297;-74
2022/11/15 11:56:43;;;;;;;36.20;20.60;;;;;;;9.05;89.11;98203.34;103054;1312;24418;-74
2022/11/15 11:59:19;;;;;;;38.70;21.80;;;;;;;9.12;89.15;98198.63;102831;1310;138369;-74
2022/11/15 12:01:47;;;;;;;33.50;19.70;;;;;;;9.19;88.87;98196.23;103080;1303;23134;-75
2022/11/15 12:04:26;;;;;;;31.40;20.40;;;;;;;9.25;88.95;98191.12;102884;1312;24316;-75
2022/11/15 12:07:03;;;;;;;32.50;18.80;;;;;;;9.35;88.91;98188.73;102770;1281;139039;-73
2022/11/15 12:10:04;;;;;;;28.10;19.70;;;;;;;9.43;88.55;98186.86;103007;1313;22483;-74
2022/11/15 12:12:53;;;;;;;27.80;18.50;;;;;;;9.52;88.05;98181.93;102891;1287;138187;-75
2022/11/15 12:15:25;;;;;;;30.90;20.30;;;;;;;9.59;87.94;98182.81;102887;1285;22673;-75
2022/11/15 12:17:55;;;;;;;34.50;19.20;;;;;;;9.65;87.44;98185.46;102800;1288;138715;-75
2022/11/15 12:20:26;;;;;;;30.50;19.00;;;;;;;9.72;87.25;98186.98;102940;1304;23450;-74
2022/11/15 12:23:13;;;;;;;33.00;19.00;;;;;;;9.77;87.12;98185.39;102747;1289;138737;-75
2022/11/15 12:26:04;;;;;;;29.70;19.90;;;;;;;9.81;86.87;98182.58;102887;1305;22486;-73
2022/11/15 12:28:44;;;;;;;33.00;19.20;;;;;;;9.77;86.82;98174.70;102743;1288;25370;-72
2022/11/15 12:31:24;;;;;;;34.50;20.20;;;;;;;9.74;87.00;98172.39;102943;1306;22478;-72
2022/11/15 12:33:56;;;;;;;31.30;20.20;;;;;;;9.69;86.55;98171.66;102949;1284;25262;-72
2022/11/15 12:36:23;;;;;;;32.30;20.40;;;;;;;9.63;86.17;98172.96;102764;1311;138278;-73
2022/11/15 12:38:58;;;;;;;32.20;19.80;;;;;;;9.56;86.04;98168.34;102826;1312;22487;-73
2022/11/15 12:41:35;;;;;;;37.40;22.20;;;;;;;9.47;86.07;98164.88;102754;1312;139801;-72
2022/11/15 12:44:04;;;;;;;37.00;23.20;;;;;;;9.40;86.01;98166.74;102930;1300;25278;-72
2022/11/15 12:46:31;;;;;;;34.00;21.80;;;;;;;9.32;86.22;98163.96;102944;1301;24427;-73
2022/11/15 12:49:30;;;;;;;38.50;21.80;;;;;;;9.26;86.40;98157.70;102875;1304;137890;-73
2022/11/15 12:51:56;;;;;;;;;;;;;;;9.19;86.72;98158.23;102887;1300;25317;-73